Time;durP1;ratioP1;P1;durP2;ratioP2;P2;SDS_P1;SDS_P2;PMS_P1;PMS_P2;Temp;Humidity;BMP_temperature;BMP_pressure;BME280_temperature;BME280_humidity;BME280_pressure;Samples;Min_cycle;Max_cycle;Signal;HPM_P1;HPM_P2
2023/07/05 00:01:13;;;;;;;12.13;5.63;;;15.50;99.90;;;;;;5106438;28;20024;-78
2023/07/05 00:03:40;;;;;;;11.02;5.72;;;15.50;99.90;;;;;;5107933;28;20015;-74
2023/07/05 00:06:06;;;;;;;10.73;5.72;;;15.50;99.90;;;;;;5088133;28;20464;-73
2023/07/05 00:08:33;;;;;;;11.02;5.80;;;15.50;99.90;;;;;;5104793;28;20699;-76
2023/07/05 00:11:07;;;;;;;14.52;6.53;;;15.60;99.90;;;;;;5103834;28;20055;-77
2023/07/05 00:13:33;;;;;;;11.85;5.80;;;15.70;99.90;;;;;;5110151;28;20028;-74
2023/07/05 00:16:01;;;;;;;15.35;5.85;;;15.80;99.90;;;;;;5112244;28;20058;-74
2023/07/05 00:18:28;;;;;;;9.90;5.40;;;16.00;99.90;;;;;;5111374;28;20048;-74
2023/07/05 00:20:59;;;;;;;11.40;5.75;;;16.10;99.90;;;;;;5111191;28;20371;-76
2023/07/05 00:23:25;;;;;;;10.32;5.53;;;16.20;99.90;;;;;;5111447;28;20020;-74
2023/07/05 00:25:50;;;;;;;10.07;5.28;;;16.20;99.90;;;;;;5110598;28;20031;-74
2023/07/05 00:28:16;;;;;;;11.77;5.40;;;16.30;99.90;;;;;;5109687;27;20384;-73
2023/07/05 00:30:43;;;;;;;12.40;5.30;;;16.30;99.90;;;;;;5111145;28;20028;-76
2023/07/05 00:33:09;;;;;;;8.82;4.97;;;16.30;99.90;;;;;;5111966;28;20054;-73
2023/07/05 00:35:34;;;;;;;8.25;4.47;;;16.40;99.90;;;;;;5111049;28;20801;-73
2023/07/05 00:38:00;;;;;;;10.27;4.40;;;16.60;99.90;;;;;;5110078;28;20375;-74
2023/07/05 00:40:25;;;;;;;7.72;4.72;;;16.70;99.90;;;;;;5110457;28;20028;-74
2023/07/05 00:42:51;;;;;;;13.80;5.25;;;16.90;99.90;;;;;;5110623;28;20027;-75
2023/07/05 00:45:20;;;;;;;9.50;4.82;;;16.90;99.90;;;;;;5107967;28;20540;-74
2023/07/05 00:47:46;;;;;;;9.85;4.90;;;16.70;99.90;;;;;;5111457;28;20048;-73
2023/07/05 00:50:25;;;;;;;11.13;4.80;;;16.40;99.90;;;;;;5109521;28;20067;-76
2023/07/05 00:52:53;;;;;;;14.70;4.70;;;16.50;99.90;;;;;;5093259;28;20034;-76
2023/07/05 00:55:19;;;;;;;9.27;4.80;;;16.50;99.90;;;;;;5109914;28;20036;-76
2023/07/05 00:57:45;;;;;;;12.10;5.32;;;16.60;99.90;;;;;;5107176;27;20028;-75
2023/07/05 01:00:15;;;;;;;12.07;5.43;;;16.40;99.90;;;;;;5117859;27;20035;-76
2023/07/05 01:02:45;;;;;;;12.07;5.35;;;16.20;99.90;;;;;;5111186;28;20063;-75
2023/07/05 01:05:11;;;;;;;8.70;5.03;;;16.10;99.90;;;;;;5091215;28;20024;-74
2023/07/05 01:07:37;;;;;;;10.18;4.90;;;16.10;99.90;;;;;;5108678;28;20327;-73
2023/07/05 01:10:05;;;;;;;11.23;4.45;;;16.10;99.90;;;;;;5110226;28;20040;-76
2023/07/05 01:12:40;;;;;;;8.80;4.60;;;16.30;99.90;;;;;;5108483;28;20031;-75
2023/07/05 01:15:15;;;;;;;9.95;4.57;;;16.30;99.90;;;;;;5096818;28;20383;-74
2023/07/05 01:17:41;;;;;;;6.55;3.92;;;16.30;99.90;;;;;;5101477;28;20063;-76
2023/07/05 01:20:38;;;;;;;11.70;4.07;;;16.40;99.90;;;;;;5109397;28;20412;-75
2023/07/05 01:23:22;;;;;;;7.35;3.58;;;16.50;99.90;;;;;;5109893;28;20072;-76
2023/07/05 01:26:03;;;;;;;9.25;4.25;;;16.50;99.90;;;;;;5110496;28;20035;-78
2023/07/05 01:28:49;;;;;;;8.15;3.90;;;16.50;99.90;;;;;;5126457;27;20038;-76
2023/07/05 01:31:24;;;;;;;8.30;4.38;;;16.50;99.90;;;;;;5107179;27;20032;-80
2023/07/05 01:34:21;;;;;;;7.80;4.13;;;16.50;99.90;;;;;;5110820;28;20411;-74
2023/07/05 01:36:47;;;;;;;9.60;4.30;;;16.40;99.90;;;;;;5082092;28;20040;-73
2023/07/05 01:39:13;;;;;;;6.97;3.78;;;16.30;99.90;;;;;;5090391;28;20040;-75
2023/07/05 01:41:39;;;;;;;10.88;4.78;;;16.30;99.90;;;;;;5099579;28;20440;-75
2023/07/05 01:44:06;;;;;;;12.23;4.45;;;16.30;99.90;;;;;;5109617;28;20027;-73
2023/07/05 01:46:40;;;;;;;8.07;4.22;;;16.20;99.90;;;;;;5108699;28;20078;-74
2023/07/05 01:49:45;;;;;;;8.45;4.28;;;16.20;99.90;;;;;;5097654;28;20571;-78
2023/07/05 01:52:21;;;;;;;6.95;3.75;;;16.20;99.90;;;;;;5104274;28;20027;-73
2023/07/05 01:55:28;;;;;;;8.48;4.18;;;16.20;99.90;;;;;;5110417;28;20034;-73
2023/07/05 01:58:17;;;;;;;7.80;4.30;;;16.20;99.90;;;;;;5112001;27;20042;-76
2023/07/05 02:00:46;;;;;;;9.75;4.35;;;16.10;99.90;;;;;;5107676;28;20019;-74
2023/07/05 02:03:15;;;;;;;10.50;4.90;;;16.00;99.90;;;;;;5106865;28;20445;-74
2023/07/05 02:05:41;;;;;;;9.40;4.35;;;15.90;99.90;;;;;;5093467;28;20023;-74
2023/07/05 02:08:06;;;;;;;8.38;4.47;;;15.90;99.90;;;;;;5109019;28;20114;-74
2023/07/05 02:10:33;;;;;;;10.23;4.28;;;15.80;99.90;;;;;;5108411;28;20478;-75
2023/07/05 02:13:03;;;;;;;10.40;4.78;;;15.70;99.90;;;;;;5108711;28;20488;-75
2023/07/05 02:15:28;;;;;;;10.07;4.82;;;15.80;99.90;;;;;;5109438;28;20031;-76
2023/07/05 02:17:54;;;;;;;9.00;3.92;;;15.70;99.90;;;;;;5106929;28;20486;-74
2023/07/05 02:20:20;;;;;;;8.50;3.38;;;15.70;99.90;;;;;;5108793;28;20032;-81
2023/07/05 02:22:45;;;;;;;6.72;3.88;;;16.00;99.90;;;;;;5108830;28;20027;-74
2023/07/05 02:25:11;;;;;;;9.82;4.50;;;16.20;99.90;;;;;;5091414;28;20112;-74
2023/07/05 02:27:37;;;;;;;8.75;4.35;;;16.10;99.90;;;;;;5115890;27;20118;-76
2023/07/05 02:30:05;;;;;;;9.38;4.28;;;15.90;99.90;;;;;;5103631;28;20065;-78
2023/07/05 02:32:31;;;;;;;6.93;3.65;;;15.90;99.90;;;;;;5103507;28;20545;-75
2023/07/05 02:35:01;;;;;;;7.50;3.78;;;16.00;99.90;;;;;;5109520;28;20032;-77
2023/07/05 02:37:26;;;;;;;11.65;4.63;;;16.20;99.90;;;;;;5101731;28;20392;-76
2023/07/05 02:39:53;;;;;;;7.40;3.70;;;16.20;99.90;;;;;;5108695;28;20031;-76
2023/07/05 02:42:19;;;;;;;7.40;3.95;;;16.30;99.90;;;;;;5108267;28;20077;-78
2023/07/05 02:44:48;;;;;;;8.10;4.25;;;16.30;99.90;;;;;;5108470;28;20031;-74
2023/07/05 02:47:15;;;;;;;9.02;4.32;;;16.10;99.90;;;;;;5108542;28;20177;-76
2023/07/05 02:49:41;;;;;;;7.50;4.35;;;16.10;99.90;;;;;;5106491;28;20032;-74
2023/07/05 02:52:07;;;;;;;9.55;3.92;;;16.10;99.90;;;;;;5107729;28;20492;-74
2023/07/05 02:54:33;;;;;;;8.48;3.83;;;16.10;99.90;;;;;;5108509;28;20063;-77
2023/07/05 02:56:58;;;;;;;9.25;4.53;;;16.30;99.90;;;;;;5114564;27;20451;-76
2023/07/05 02:59:24;;;;;;;9.20;4.15;;;16.30;99.90;;;;;;5087586;28;20115;-78
2023/07/05 03:01:50;;;;;;;9.60;4.72;;;16.30;99.90;;;;;;5105085;28;20395;-78
2023/07/05 03:04:15;;;;;;;11.98;5.10;;;16.20;99.90;;;;;;5104665;28;20030;-75
2023/07/05 03:06:41;;;;;;;10.40;5.22;;;16.10;99.90;;;;;;5106316;28;20023;-74
2023/07/05 03:09:06;;;;;;;9.48;5.30;;;15.80;99.90;;;;;;5107863;28;20032;-76
2023/07/05 03:11:32;;;;;;;10.23;4.47;;;15.60;99.90;;;;;;5105472;28;20024;-74
2023/07/05 03:13:58;;;;;;;8.93;4.85;;;15.60;99.90;;;;;;5090487;28;20550;-76
2023/07/05 03:16:23;;;;;;;9.48;4.82;;;15.70;99.90;;;;;;5091275;28;20028;-80
2023/07/05 03:18:49;;;;;;;9.70;4.55;;;15.60;99.90;;;;;;5106912;28;21090;-78
2023/07/05 03:21:14;;;;;;;10.43;5.07;;;15.60;99.90;;;;;;5106424;28;20478;-73
2023/07/05 03:23:40;;;;;;;8.82;4.70;;;15.60;99.90;;;;;;5091172;28;20028;-73
2023/07/05 03:26:08;;;;;;;8.02;4.68;;;15.60;99.90;;;;;;5088879;28;20058;-73
2023/07/05 03:28:36;;;;;;;9.32;4.75;;;15.80;99.90;;;;;;5098969;28;20117;-73
2023/07/05 03:31:05;;;;;;;8.13;4.60;;;15.80;99.90;;;;;;5106332;28;20036;-74
2023/07/05 03:33:31;;;;;;;10.80;5.65;;;15.90;99.90;;;;;;5108213;28;20034;-73
2023/07/05 03:35:59;;;;;;;9.75;5.03;;;15.80;99.90;;;;;;5099283;28;20039;-73
2023/07/05 03:38:26;;;;;;;13.02;5.57;;;15.60;99.90;;;;;;5087995;28;20098;-78
2023/07/05 03:41:06;;;;;;;10.18;4.97;;;15.50;99.90;;;;;;5102752;28;20040;-73
2023/07/05 03:43:35;;;;;;;10.32;5.53;;;15.30;99.90;;;;;;5112308;28;20031;-72
2023/07/05 03:46:03;;;;;;;9.20;4.82;;;15.10;99.90;;;;;;5092092;28;20535;-72
2023/07/05 03:48:30;;;;;;;10.40;4.60;;;15.10;99.90;;;;;;5109198;28;20510;-76
2023/07/05 03:50:58;;;;;;;5.93;3.55;;;15.30;99.90;;;;;;5112398;28;20035;-75
2023/07/05 03:53:23;;;;;;;7.65;4.22;;;15.50;99.90;;;;;;5105262;28;20497;-80
2023/07/05 03:55:49;;;;;;;9.65;5.35;;;15.80;99.90;;;;;;5111314;28;20047;-73
2023/07/05 03:58:15;;;;;;;9.63;5.32;;;15.70;99.90;;;;;;5121858;27;20039;-72
2023/07/05 04:00:40;;;;;;;12.75;5.20;;;15.50;99.90;;;;;;5114786;27;20655;-74
2023/07/05 04:03:07;;;;;;;8.13;5.18;;;15.50;99.90;;;;;;5126686;27;20112;-81
2023/07/05 04:05:32;;;;;;;6.78;4.18;;;15.50;99.90;;;;;;5085564;28;20142;-81
2023/07/05 04:07:58;;;;;;;10.10;4.63;;;15.40;99.90;;;;;;5112423;28;20516;-75
2023/07/05 04:10:24;;;;;;;6.78;3.83;;;15.40;99.90;;;;;;5112286;28;20377;-75
2023/07/05 04:12:49;;;;;;;8.93;3.80;;;15.70;99.90;;;;;;5091058;28;20463;-74
2023/07/05 04:15:15;;;;;;;6.53;3.95;;;15.80;99.90;;;;;;5111368;28;20028;-74
2023/07/05 04:17:41;;;;;;;7.43;3.97;;;15.80;99.90;;;;;;5103277;28;20119;-76
2023/07/05 04:20:07;;;;;;;8.10;4.00;;;15.80;99.90;;;;;;5107312;28;20031;-75
2023/07/05 04:22:35;;;;;;;7.75;3.72;;;15.80;99.90;;;;;;5107567;27;20041;-79
2023/07/05 04:25:01;;;;;;;9.77;3.80;;;15.80;99.90;;;;;;5113018;27;20035;-80
2023/07/05 04:27:27;;;;;;;6.88;3.42;;;15.80;99.90;;;;;;5111413;28;20027;-76
2023/07/05 04:29:53;;;;;;;9.20;3.38;;;15.90;99.90;;;;;;5110720;28;20490;-76
2023/07/05 04:32:19;;;;;;;6.57;3.17;;;16.00;99.90;;;;;;5093662;28;20034;-75
2023/07/05 04:34:44;;;;;;;14.63;3.25;;;16.00;99.90;;;;;;5092580;28;20627;-73
2023/07/05 04:37:10;;;;;;;7.32;3.33;;;16.10;99.90;;;;;;5111840;28;20024;-76
2023/07/05 04:39:35;;;;;;;8.68;3.60;;;16.10;99.90;;;;;;5110890;28;20034;-77
2023/07/05 04:42:01;;;;;;;6.93;3.30;;;16.20;99.90;;;;;;5093333;28;20036;-76
2023/07/05 04:44:27;;;;;;;5.63;2.90;;;16.30;99.90;;;;;;5111500;28;20077;-74
2023/07/05 04:46:52;;;;;;;9.70;3.42;;;16.30;99.90;;;;;;5110788;28;20047;-76
2023/07/05 04:49:18;;;;;;;6.60;3.17;;;16.40;99.90;;;;;;5111521;28;20051;-76
2023/07/05 04:51:44;;;;;;;5.93;3.25;;;16.50;99.90;;;;;;5110700;28;20078;-78
2023/07/05 04:54:09;;;;;;;7.25;3.05;;;16.50;99.90;;;;;;5087266;28;20016;-74
2023/07/05 04:56:36;;;;;;;7.63;3.25;;;16.60;99.90;;;;;;5090547;28;20426;-77
2023/07/05 04:59:02;;;;;;;7.10;3.40;;;16.70;99.90;;;;;;5106529;28;20118;-81
2023/07/05 05:01:28;;;;;;;7.00;3.10;;;16.80;99.90;;;;;;5100979;28;20750;-77
2023/07/05 05:03:53;;;;;;;7.80;3.38;;;16.90;99.90;;;;;;5110776;28;20055;-74
2023/07/05 05:06:19;;;;;;;14.10;4.15;;;17.00;99.90;;;;;;5110824;28;20024;-77
2023/07/05 05:08:44;;;;;;;7.25;3.70;;;17.00;99.90;;;;;;5110141;28;20441;-76
2023/07/05 05:11:10;;;;;;;6.45;3.47;;;17.00;99.90;;;;;;5092038;28;20028;-78
2023/07/05 05:13:36;;;;;;;8.65;3.92;;;17.00;99.90;;;;;;5110196;28;20035;-79
2023/07/05 05:16:02;;;;;;;7.57;4.32;;;17.10;99.90;;;;;;5110894;28;20436;-78
2023/07/05 05:18:33;;;;;;;7.50;4.20;;;17.10;99.90;;;;;;5110074;28;20555;-80
2023/07/05 05:20:58;;;;;;;9.15;4.03;;;17.10;99.90;;;;;;5110838;28;20031;-77
2023/07/05 05:23:25;;;;;;;12.40;4.25;;;17.10;99.90;;;;;;5122644;27;20035;-80
2023/07/05 05:25:51;;;;;;;8.60;4.50;;;17.10;99.90;;;;;;5121970;27;20023;-76
2023/07/05 05:28:17;;;;;;;10.98;4.60;;;17.10;99.90;;;;;;5110603;28;20118;-78
2023/07/05 05:30:43;;;;;;;8.35;4.43;;;17.00;99.90;;;;;;5110062;28;20356;-76
2023/07/05 05:33:10;;;;;;;7.63;3.40;;;17.00;99.90;;;;;;5110873;28;20074;-77
2023/07/05 05:35:36;;;;;;;7.35;3.60;;;16.90;99.90;;;;;;5091595;28;20376;-78
2023/07/05 05:38:03;;;;;;;6.90;3.83;;;17.00;99.90;;;;;;5110683;28;20027;-79
2023/07/05 05:40:29;;;;;;;6.45;3.25;;;17.00;99.90;;;;;;5110579;28;20507;-72
2023/07/05 05:42:56;;;;;;;6.38;3.13;;;17.10;99.90;;;;;;5109962;28;20026;-77
2023/07/05 05:45:22;;;;;;;8.02;3.25;;;17.20;99.90;;;;;;5108682;28;20038;-76
2023/07/05 05:47:49;;;;;;;5.10;2.88;;;17.30;99.90;;;;;;5108668;28;20051;-72
2023/07/05 05:50:15;;;;;;;7.10;3.15;;;17.40;99.90;;;;;;5110321;28;20411;-74
2023/07/05 05:52:41;;;;;;;10.05;3.45;;;17.40;99.90;;;;;;5124759;27;20040;-77
2023/07/05 05:55:07;;;;;;;6.30;3.67;;;17.50;99.90;;;;;;5110264;28;20376;-77
2023/07/05 05:57:33;;;;;;;6.22;3.47;;;17.70;99.90;;;;;;5108930;28;20020;-76
2023/07/05 05:59:58;;;;;;;5.82;3.35;;;18.00;99.90;;;;;;5091693;28;20407;-74
2023/07/05 06:02:24;;;;;;;5.60;3.22;;;18.10;99.90;;;;;;5109333;28;20028;-77
2023/07/05 06:04:50;;;;;;;5.47;3.13;;;18.30;99.90;;;;;;5107627;28;20035;-79
2023/07/05 06:07:16;;;;;;;4.68;2.88;;;18.40;99.90;;;;;;5108735;28;20031;-78
2023/07/05 06:09:49;;;;;;;7.00;3.28;;;18.40;99.90;;;;;;5108996;28;20490;-78
2023/07/05 06:12:15;;;;;;;4.97;2.63;;;18.40;99.90;;;;;;5109217;28;20045;-76
2023/07/05 06:14:41;;;;;;;5.82;2.33;;;18.50;99.90;;;;;;5109069;28;20031;-76
2023/07/05 06:17:06;;;;;;;8.27;2.60;;;18.60;99.90;;;;;;5108626;27;20035;-73
2023/07/05 06:19:32;;;;;;;6.20;2.05;;;18.60;99.90;;;;;;5125476;27;20035;-73
2023/07/05 06:21:59;;;;;;;8.70;2.75;;;18.70;99.90;;;;;;5109597;28;20035;-74
2023/07/05 06:24:25;;;;;;;3.17;2.20;;;18.70;99.90;;;;;;5109818;28;20027;-76
2023/07/05 06:26:50;;;;;;;3.75;2.28;;;18.70;99.90;;;;;;5109046;28;20839;-74
2023/07/05 06:29:16;;;;;;;7.85;2.58;;;18.80;99.90;;;;;;5109258;28;20096;-73
2023/07/05 06:31:42;;;;;;;6.57;2.67;;;18.90;99.90;;;;;;5108926;28;20111;-74
2023/07/05 06:34:07;;;;;;;5.60;2.97;;;19.10;99.90;;;;;;5109460;28;20047;-73
2023/07/05 06:36:33;;;;;;;5.95;2.20;;;19.40;99.90;;;;;;5100372;28;20028;-76
2023/07/05 06:38:59;;;;;;;4.35;1.95;;;19.60;99.90;;;;;;5088865;28;20032;-74
2023/07/05 06:41:24;;;;;;;4.45;2.10;;;19.70;99.90;;;;;;5114210;27;20032;-73
2023/07/05 06:43:50;;;;;;;3.80;2.08;;;19.60;99.90;;;;;;5108567;28;20035;-72
2023/07/05 06:46:15;;;;;;;4.65;2.22;;;19.50;99.90;;;;;;5088984;28;20031;-74
2023/07/05 06:48:41;;;;;;;4.32;2.38;;;19.40;99.90;;;;;;5101818;28;20047;-76
2023/07/05 06:51:07;;;;;;;9.82;2.25;;;19.30;99.90;;;;;;5088926;28;20472;-75
2023/07/05 06:53:33;;;;;;;4.47;1.90;;;19.20;99.90;;;;;;5109484;28;20027;-72
2023/07/05 06:55:58;;;;;;;9.88;2.38;;;19.30;99.90;;;;;;5108662;28;20027;-74
2023/07/05 06:58:24;;;;;;;5.32;2.60;;;19.20;99.90;;;;;;5108208;28;20032;-71
2023/07/05 07:00:51;;;;;;;4.85;2.25;;;19.20;99.90;;;;;;5089138;28;20036;-76
2023/07/05 07:03:17;;;;;;;3.42;2.00;;;19.20;99.90;;;;;;5108936;28;20027;-76
2023/07/05 07:05:57;;;;;;;3.92;2.08;;;19.30;99.90;;;;;;5108234;28;20039;-76
2023/07/05 07:08:28;;;;;;;4.35;2.20;;;19.20;99.90;;;;;;5108973;28;20041;-74
2023/07/05 07:10:54;;;;;;;4.78;2.40;;;19.20;99.90;;;;;;5108418;28;20020;-74
2023/07/05 07:13:20;;;;;;;4.20;1.98;;;19.30;99.90;;;;;;5109044;28;20023;-72
2023/07/05 07:15:45;;;;;;;4.03;2.17;;;19.40;99.90;;;;;;5108701;28;20024;-73
2023/07/05 07:18:11;;;;;;;5.70;2.70;;;19.40;99.90;;;;;;5093411;28;20030;-77
2023/07/05 07:20:38;;;;;;;4.93;2.67;;;19.50;99.90;;;;;;5097410;28;20473;-71
2023/07/05 07:23:04;;;;;;;3.65;2.42;;;19.70;99.90;;;;;;5093039;28;20028;-78
2023/07/05 07:25:30;;;;;;;4.13;2.20;;;20.00;99.90;;;;;;5105731;28;20030;-77
2023/07/05 07:27:55;;;;;;;5.20;2.33;;;20.30;99.90;;;;;;5112374;28;20251;-73
2023/07/05 07:30:21;;;;;;;5.03;2.55;;;20.40;99.90;;;;;;5094712;28;20533;-74
2023/07/05 07:32:47;;;;;;;4.50;2.30;;;20.60;99.90;;;;;;5109757;28;20027;-76
2023/07/05 07:35:13;;;;;;;7.57;2.55;;;20.60;99.90;;;;;;5112865;28;20027;-73
2023/07/05 07:37:39;;;;;;;6.18;2.38;;;20.50;99.90;;;;;;5111851;28;20080;-73
2023/07/05 07:40:06;;;;;;;4.53;2.00;;;20.50;99.90;;;;;;5112376;28;20028;-74
2023/07/05 07:42:32;;;;;;;4.82;2.45;;;20.80;99.90;;;;;;5113047;28;20031;-74
2023/07/05 07:44:58;;;;;;;4.43;2.40;;;21.10;99.90;;;;;;5111772;28;20012;-75
2023/07/05 07:47:24;;;;;;;9.40;2.60;;;21.00;99.90;;;;;;5112570;28;20463;-75
2023/07/05 07:49:50;;;;;;;5.15;2.20;;;20.70;99.90;;;;;;5111262;28;20643;-76
2023/07/05 07:52:17;;;;;;;3.60;1.70;;;20.30;99.90;;;;;;5112767;28;20032;-78
2023/07/05 07:54:43;;;;;;;3.13;1.80;;;19.30;99.90;;;;;;5112154;28;20039;-72
2023/07/05 07:57:09;;;;;;;29.80;2.70;;;18.70;99.90;;;;;;5111583;28;20049;-72
2023/07/05 07:59:38;;;;;;;11.43;1.85;;;18.30;99.90;;;;;;5112309;28;20548;-80
2023/07/05 08:02:06;;;;;;;8.63;2.20;;;17.60;99.90;;;;;;5111287;28;20028;-84
2023/07/05 08:04:32;;;;;;;7.10;1.80;;;17.10;99.90;;;;;;5112178;28;20036;-75
2023/07/05 08:06:58;;;;;;;6.50;1.50;;;16.70;99.90;;;;;;5110510;28;20020;-74
2023/07/05 08:09:27;;;;;;;3.67;1.83;;;16.50;99.90;;;;;;5112387;28;20036;-77
2023/07/05 08:11:56;;;;;;;2.88;1.52;;;16.40;99.90;;;;;;5111600;28;20062;-74
2023/07/05 08:14:22;;;;;;;4.03;2.00;;;16.10;99.90;;;;;;5112252;28;20063;-72
2023/07/05 08:16:48;;;;;;;3.83;2.10;;;16.20;99.90;;;;;;5092973;28;20064;-76
2023/07/05 08:19:15;;;;;;;5.13;1.65;;;16.30;99.90;;;;;;5112222;28;20050;-75
2023/07/05 08:21:45;;;;;;;3.50;1.60;;;16.30;99.90;;;;;;5110767;28;20023;-76
2023/07/05 08:24:12;;;;;;;3.38;1.95;;;16.40;99.90;;;;;;5110221;28;20055;-78
2023/07/05 08:26:37;;;;;;;5.25;1.85;;;16.40;99.90;;;;;;5100790;28;20020;-76
2023/07/05 08:29:06;;;;;;;2.70;1.70;;;16.50;99.90;;;;;;5089423;28;20156;-76
2023/07/05 08:31:31;;;;;;;4.63;1.90;;;16.60;99.90;;;;;;5073340;28;20383;-80
2023/07/05 08:34:01;;;;;;;3.78;1.90;;;16.70;99.90;;;;;;5084509;28;20023;-74
2023/07/05 08:36:34;;;;;;;4.63;1.90;;;16.90;99.90;;;;;;5093532;28;20038;-75
2023/07/05 08:39:05;;;;;;;5.95;2.33;;;17.00;99.90;;;;;;5110749;27;20050;-78
2023/07/05 08:41:45;;;;;;;5.47;1.98;;;17.20;99.90;;;;;;5112015;27;20032;-79
2023/07/05 08:44:29;;;;;;;4.00;2.10;;;17.40;99.90;;;;;;5111641;28;20137;-80
2023/07/05 08:46:56;;;;;;;6.35;2.28;;;17.50;99.90;;;;;;5109799;28;20039;-78
2023/07/05 08:49:31;;;;;;;4.38;1.80;;;17.50;99.90;;;;;;5111681;28;20027;-79
2023/07/05 08:51:58;;;;;;;4.97;2.28;;;17.50;99.90;;;;;;5092429;28;20039;-76
2023/07/05 08:54:31;;;;;;;5.00;1.85;;;17.50;99.90;;;;;;5116556;27;20433;-76
2023/07/05 08:57:08;;;;;;;4.35;1.90;;;17.50;99.90;;;;;;5110818;28;20471;-75
2023/07/05 08:59:54;;;;;;;7.43;2.15;;;17.50;99.90;;;;;;5111724;28;20088;-73
2023/07/05 09:02:22;;;;;;;4.95;2.17;;;17.60;99.90;;;;;;5110811;28;20031;-76
2023/07/05 09:04:49;;;;;;;3.03;2.00;;;17.50;99.90;;;;;;5109276;28;20372;-80
2023/07/05 09:07:37;;;;;;;3.15;2.00;;;17.50;99.90;;;;;;5096574;28;20032;-77
2023/07/05 09:10:28;;;;;;;4.53;2.25;;;17.30;99.90;;;;;;5110403;27;20550;-79
2023/07/05 09:13:19;;;;;;;11.63;2.70;;;17.30;99.90;;;;;;5075008;28;20047;-73
2023/07/05 09:16:14;;;;;;;15.70;2.17;;;17.20;99.90;;;;;;5104326;27;20039;-72
2023/07/05 09:18:56;;;;;;;4.30;2.20;;;17.00;99.90;;;;;;5091727;28;20032;-74
2023/07/05 09:21:43;;;;;;;7.43;2.50;;;16.80;99.90;;;;;;5111091;28;20024;-78
2023/07/05 09:24:29;;;;;;;6.45;2.90;;;16.80;99.90;;;;;;5090001;28;20069;-72
2023/07/05 09:27:35;;;;;;;10.20;2.72;;;16.70;99.90;;;;;;5089789;28;20020;-74
2023/07/05 09:30:11;;;;;;;5.65;2.83;;;16.60;99.90;;;;;;5094972;28;20039;-73
2023/07/05 09:32:44;;;;;;;5.72;2.88;;;16.40;99.90;;;;;;5090840;28;20365;-76
2023/07/05 09:35:19;;;;;;;8.27;2.90;;;16.30;99.90;;;;;;5071852;28;20031;-75
2023/07/05 09:38:19;;;;;;;5.40;2.90;;;16.30;99.90;;;;;;5088499;28;20104;-75
2023/07/05 09:40:59;;;;;;;6.07;2.97;;;16.30;99.90;;;;;;5083222;28;20081;-73
2023/07/05 09:43:29;;;;;;;7.22;3.50;;;16.40;99.90;;;;;;5117613;27;20027;-74
2023/07/05 09:45:55;;;;;;;7.57;3.30;;;16.60;99.90;;;;;;5129866;27;20027;-74
2023/07/05 09:48:21;;;;;;;8.02;3.25;;;16.70;99.90;;;;;;5115134;27;20368;-75
2023/07/05 09:50:50;;;;;;;14.88;3.42;;;16.70;99.90;;;;;;5109477;28;20369;-73
2023/07/05 09:53:36;;;;;;;5.82;3.17;;;16.60;99.90;;;;;;5110224;28;20411;-75
2023/07/05 09:56:12;;;;;;;13.93;3.47;;;16.40;99.90;;;;;;5104421;28;20484;-78
2023/07/05 09:58:39;;;;;;;11.52;3.53;;;16.50;99.90;;;;;;5106247;28;20042;-80
2023/07/05 10:01:21;;;;;;;7.10;3.75;;;16.60;99.90;;;;;;5109233;28;20023;-79
2023/07/05 10:04:01;;;;;;;7.03;4.03;;;16.70;99.90;;;;;;5087568;28;20400;-76
2023/07/05 10:06:28;;;;;;;10.43;3.97;;;17.20;99.90;;;;;;5113010;27;20498;-79
2023/07/05 10:08:55;;;;;;;12.60;3.72;;;17.20;99.90;;;;;;5107617;28;20063;-79
2023/07/05 10:11:26;;;;;;;10.63;4.13;;;17.50;99.90;;;;;;5108550;28;20043;-81
2023/07/05 10:14:07;;;;;;;10.60;3.70;;;17.80;99.90;;;;;;5089979;28;20040;-76
2023/07/05 10:16:52;;;;;;;9.73;4.63;;;18.00;99.90;;;;;;5110334;27;20388;-75
2023/07/05 10:19:31;;;;;;;6.95;3.95;;;18.30;99.90;;;;;;5108406;28;20558;-76
2023/07/05 10:22:03;;;;;;;9.52;4.55;;;18.20;99.90;;;;;;5107053;28;20058;-77
2023/07/05 10:24:36;;;;;;;7.22;4.07;;;18.40;99.90;;;;;;5108811;28;20036;-76
2023/07/05 10:27:12;;;;;;;10.82;4.88;;;18.50;99.90;;;;;;5097954;28;20043;-76
2023/07/05 10:29:40;;;;;;;8.73;4.40;;;18.50;99.90;;;;;;5091987;28;20035;-78
2023/07/05 10:32:22;;;;;;;5.63;3.72;;;18.60;99.90;;;;;;5086725;28;20472;-79
2023/07/05 10:34:51;;;;;;;8.85;4.25;;;18.40;99.90;;;;;;5109383;28;20376;-73
2023/07/05 10:37:33;;;;;;;8.90;4.63;;;18.00;99.90;;;;;;5109454;28;20077;-78
2023/07/05 10:40:09;;;;;;;6.10;3.78;;;17.90;99.90;;;;;;5108979;28;20024;-77
2023/07/05 10:42:49;;;;;;;9.88;4.68;;;17.90;99.90;;;;;;5109747;28;20020;-76
2023/07/05 10:45:19;;;;;;;8.38;4.35;;;18.40;99.90;;;;;;5107543;28;20085;-72
2023/07/05 10:47:52;;;;;;;11.13;4.78;;;18.30;99.90;;;;;;5109955;27;20127;-73
2023/07/05 10:50:25;;;;;;;9.23;4.57;;;18.40;99.90;;;;;;5098506;28;20028;-74
2023/07/05 10:52:56;;;;;;;11.30;3.83;;;18.60;99.90;;;;;;5105594;28;20027;-78
2023/07/05 10:55:33;;;;;;;10.88;4.60;;;18.80;99.90;;;;;;5108487;28;20026;-79
2023/07/05 10:58:09;;;;;;;7.65;4.03;;;19.10;99.90;;;;;;5107360;28;20058;-74
2023/07/05 11:00:44;;;;;;;9.18;3.60;;;19.30;99.90;;;;;;5109270;28;20032;-77
2023/07/05 11:03:23;;;;;;;7.32;3.90;;;19.70;99.90;;;;;;5094012;28;20020;-73
2023/07/05 11:05:51;;;;;;;8.53;4.43;;;19.90;99.90;;;;;;5088982;28;20024;-73
2023/07/05 11:08:30;;;;;;;7.47;4.38;;;19.80;99.90;;;;;;5088654;28;20024;-78
2023/07/05 11:11:01;;;;;;;7.18;4.43;;;20.00;99.90;;;;;;5086550;28;20036;-80
2023/07/05 11:13:27;;;;;;;;;;;20.10;99.90;;;;;;5089447;28;20055;-79
2023/07/05 11:15:53;;;;;;;6.47;3.83;;;20.10;99.90;;;;;;5087752;28;20719;-79
2023/07/05 11:18:21;;;;;;;8.77;4.40;;;19.80;99.90;;;;;;5103261;28;20051;-77
2023/07/05 11:20:50;;;;;;;6.57;3.03;;;19.60;99.90;;;;;;5109206;28;20139;-78
2023/07/05 11:23:40;;;;;;;6.60;3.10;;;19.90;99.90;;;;;;5108973;28;20055;-80
2023/07/05 11:26:07;;;;;;;7.32;3.72;;;20.10;99.90;;;;;;5108362;28;20071;-74
2023/07/05 11:28:41;;;;;;;7.57;3.53;;;20.70;99.90;;;;;;5108220;28;20085;-81
2023/07/05 11:31:08;;;;;;;6.70;3.25;;;20.70;99.90;;;;;;5091533;28;20044;-78
2023/07/05 11:33:35;;;;;;;6.07;3.35;;;20.70;99.90;;;;;;5108329;28;20042;-77
2023/07/05 11:36:30;;;;;;;5.55;3.50;;;20.40;99.90;;;;;;5107105;28;20035;-78
2023/07/05 11:38:58;;;;;;;5.70;3.60;;;20.50;99.90;;;;;;5108444;28;20091;-78
2023/07/05 11:41:31;;;;;;;7.25;3.75;;;20.50;99.90;;;;;;5081060;28;20039;-78
2023/07/05 11:44:24;;;;;;;7.15;3.85;;;20.70;99.90;;;;;;5107381;28;20057;-76
2023/07/05 11:46:52;;;;;;;7.50;3.75;;;20.80;99.90;;;;;;5110555;28;20112;-74
2023/07/05 11:49:24;;;;;;;7.13;3.65;;;20.50;99.90;;;;;;5089596;28;20044;-76
2023/07/05 11:52:04;;;;;;;7.20;4.18;;;20.50;99.90;;;;;;5090335;28;20031;-76
2023/07/05 11:54:50;;;;;;;6.78;3.35;;;21.00;99.90;;;;;;5108962;28;20082;-77
2023/07/05 11:57:19;;;;;;;6.75;3.83;;;21.40;99.90;;;;;;5107497;28;20091;-75
2023/07/05 12:00:36;;;;;;;5.75;3.50;;;21.40;99.90;;;;;;5069231;28;20036;-74
2023/07/05 12:03:13;;;;;;;7.15;3.78;;;21.40;99.90;;;;;;5049389;28;20522;-74
2023/07/05 12:05:43;;;;;;;6.60;3.67;;;21.70;99.90;;;;;;5107436;28;20122;-74
2023/07/05 12:08:18;;;;;;;9.38;4.50;;;21.90;99.90;;;;;;5122052;27;20031;-74
2023/07/05 12:10:55;;;;;;;8.15;4.07;;;22.70;99.90;;;;;;5113582;27;20034;-77
2023/07/05 12:13:24;;;;;;;12.98;4.13;;;22.90;99.90;;;;;;5086963;28;20943;-74
2023/07/05 12:15:52;;;;;;;7.20;4.07;;;22.90;99.90;;;;;;5087201;28;20020;-71
2023/07/05 12:18:21;;;;;;;8.10;4.15;;;22.80;99.90;;;;;;5101718;28;20550;-71
2023/07/05 12:20:58;;;;;;;9.02;3.90;;;23.00;99.90;;;;;;5108975;28;20031;-71
2023/07/05 12:23:28;;;;;;;10.68;4.18;;;23.20;99.90;;;;;;5110280;28;20089;-73
2023/07/05 12:25:58;;;;;;;9.30;4.43;;;23.20;99.90;;;;;;5101954;28;20107;-71
2023/07/05 12:28:26;;;;;;;10.68;4.00;;;23.40;99.90;;;;;;5108436;27;20055;-72
2023/07/05 12:31:05;;;;;;;7.65;4.32;;;23.30;99.90;;;;;;5111222;27;20499;-74
2023/07/05 12:33:40;;;;;;;6.90;4.15;;;23.50;99.90;;;;;;5092702;28;20027;-72
2023/07/05 12:36:10;;;;;;;10.30;3.83;;;23.70;99.90;;;;;;5102206;28;20054;-74
2023/07/05 12:38:37;;;;;;;9.10;3.65;;;23.80;99.30;;;;;;5102598;28;20119;-75
2023/07/05 12:41:05;;;;;;;7.15;3.90;;;23.90;97.50;;;;;;5105850;28;21770;-72
2023/07/05 12:43:32;;;;;;;6.07;3.63;;;24.00;95.50;;;;;;5107973;27;20032;-74
2023/07/05 12:46:14;;;;;;;8.38;3.10;;;23.90;94.80;;;;;;5092382;28;20661;-72
2023/07/05 12:48:41;;;;;;;8.98;3.00;;;23.80;94.30;;;;;;5113812;27;20122;-72
2023/07/05 12:51:14;;;;;;;7.53;4.10;;;23.60;94.20;;;;;;5127005;27;20038;-74
2023/07/05 12:53:40;;;;;;;9.48;3.67;;;23.60;95.20;;;;;;5118297;27;20024;-71
2023/07/05 12:56:12;;;;;;;6.65;3.20;;;23.60;93.70;;;;;;5110192;27;20052;-72
2023/07/05 12:58:50;;;;;;;7.47;3.42;;;23.50;94.30;;;;;;5106390;28;20043;-73
2023/07/05 13:01:18;;;;;;;6.25;3.40;;;23.50;95.30;;;;;;5107079;27;20055;-76